< < Back
Terminal Aerodrome Forecast


Current Version              Previous Versions:   1  2  3  4  5  6  7  8  9  

Terminal Aerodrome Forecast

741
FTUS42 KFFC 061515 AAB
TAFFTY
TAF AMD
KFTY 061515Z 0615/0712 36005KT P6SM SCT015 BKN045
     FM061700 03006KT P6SM SCT045
     FM061800 33005KT P6SM SKC
     FM070000 32004KT P6SM SKC=

Latest METAR

407
SAUS70 KWBC 070100 RRB
MTRFTY
METAR KFTY 070053Z 32004KT 10SM CLR 05/M03 A3041 RMK AO2 SLP304
T00501028


USA.gov is the U.S. government's official web portal to all federal, state and local government web resources and services.